sensor_id;sensor_type;location;lat;lon;timestamp;pressure;altitude;pressure_sealevel;temperature;humidity
5651;BME280;40241;52.684;9.758;2023-01-26T00:00:54;102243.22;;;2.50;66.10
5651;BME280;40241;52.684;9.758;2023-01-26T00:03:20;102250.56;;;2.53;65.97
5651;BME280;40241;52.684;9.758;2023-01-26T00:05:46;102254.81;;;2.57;66.04
5651;BME280;40241;52.684;9.758;2023-01-26T00:08:11;102241.22;;;2.57;65.89
5651;BME280;40241;52.684;9.758;2023-01-26T00:10:38;102242.44;;;2.53;65.71
5651;BME280;40241;52.684;9.758;2023-01-26T00:13:05;102254.81;;;2.54;65.96
5651;BME280;40241;52.684;9.758;2023-01-26T00:15:32;102224.94;;;2.57;66.00
5651;BME280;40241;52.684;9.758;2023-01-26T00:17:59;102229.56;;;2.60;65.85
5651;BME280;40241;52.684;9.758;2023-01-26T00:20:25;102246.66;;;2.57;65.81
5651;BME280;40241;52.684;9.758;2023-01-26T00:22:50;102227.66;;;2.57;65.90
5651;BME280;40241;52.684;9.758;2023-01-26T00:25:16;102221.81;;;2.59;65.84
5651;BME280;40241;52.684;9.758;2023-01-26T00:27:41;102224.94;;;2.57;66.10
5651;BME280;40241;52.684;9.758;2023-01-26T00:30:07;102224.94;;;2.57;65.87
5651;BME280;40241;52.684;9.758;2023-01-26T00:32:34;102226.50;;;2.55;65.82
5651;BME280;40241;52.684;9.758;2023-01-26T00:35:00;102213.38;;;2.46;65.82
5651;BME280;40241;52.684;9.758;2023-01-26T00:37:25;102202.84;;;2.55;65.94
5651;BME280;40241;52.684;9.758;2023-01-26T00:39:51;102211.00;;;2.52;65.85
5651;BME280;40241;52.684;9.758;2023-01-26T00:42:16;102207.47;;;2.55;66.06
5651;BME280;40241;52.684;9.758;2023-01-26T00:44:42;102211.72;;;2.59;66.19
5651;BME280;40241;52.684;9.758;2023-01-26T00:47:10;102188.84;;;2.57;66.02
5651;BME280;40241;52.684;9.758;2023-01-26T00:49:35;102204.38;;;2.56;66.09
5651;BME280;40241;52.684;9.758;2023-01-26T00:52:02;102190.41;;;2.58;66.02
5651;BME280;40241;52.684;9.758;2023-01-26T00:54:28;102202.00;;;2.58;66.13
5651;BME280;40241;52.684;9.758;2023-01-26T00:56:54;102179.09;;;2.63;65.94
5651;BME280;40241;52.684;9.758;2023-01-26T00:59:20;102186.88;;;2.61;66.13
5651;BME280;40241;52.684;9.758;2023-01-26T01:01:46;102187.59;;;2.65;66.04
5651;BME280;40241;52.684;9.758;2023-01-26T01:04:12;102194.22;;;2.64;65.86
5651;BME280;40241;52.684;9.758;2023-01-26T01:06:38;102191.53;;;2.60;66.00
5651;BME280;40241;52.684;9.758;2023-01-26T01:09:03;102198.13;;;2.59;66.04
5651;BME280;40241;52.684;9.758;2023-01-26T01:11:29;102182.63;;;2.56;66.18
5651;BME280;40241;52.684;9.758;2023-01-26T01:13:54;102195.84;;;2.58;66.36
5651;BME280;40241;52.684;9.758;2023-01-26T01:16:19;102188.09;;;2.53;66.00
5651;BME280;40241;52.684;9.758;2023-01-26T01:18:45;102183.03;;;2.55;66.30
5651;BME280;40241;52.684;9.758;2023-01-26T01:21:15;102184.56;;;2.59;66.08
5651;BME280;40241;52.684;9.758;2023-01-26T01:23:42;102172.88;;;2.62;66.41
5651;BME280;40241;52.684;9.758;2023-01-26T01:26:08;102172.88;;;2.62;66.14
5651;BME280;40241;52.684;9.758;2023-01-26T01:28:34;102174.81;;;2.65;66.18
5651;BME280;40241;52.684;9.758;2023-01-26T01:31:08;102165.50;;;2.66;66.12
5651;BME280;40241;52.684;9.758;2023-01-26T01:33:33;102193.78;;;2.69;66.21
5651;BME280;40241;52.684;9.758;2023-01-26T01:36:04;102169.31;;;2.69;66.05
5651;BME280;40241;52.684;9.758;2023-01-26T01:38:30;102167.38;;;2.69;66.06
5651;BME280;40241;52.684;9.758;2023-01-26T01:40:56;102165.09;;;2.68;66.21
5651;BME280;40241;52.684;9.758;2023-01-26T01:43:22;102176.31;;;2.70;66.04
5651;BME280;40241;52.684;9.758;2023-01-26T01:45:49;102168.91;;;2.74;66.11
5651;BME280;40241;52.684;9.758;2023-01-26T01:49:01;102161.13;;;2.76;66.10
5651;BME280;40241;52.684;9.758;2023-01-26T01:51:36;102154.53;;;2.73;66.04
5651;BME280;40241;52.684;9.758;2023-01-26T01:54:09;102172.03;;;2.72;66.00
5651;BME280;40241;52.684;9.758;2023-01-26T01:56:38;102164.66;;;2.69;65.91
5651;BME280;40241;52.684;9.758;2023-01-26T01:59:06;102156.97;;;2.61;65.91
5651;BME280;40241;52.684;9.758;2023-01-26T02:01:33;102164.34;;;2.60;66.15
5651;BME280;40241;52.684;9.758;2023-01-26T02:04:00;102172.13;;;2.58;66.00
5651;BME280;40241;52.684;9.758;2023-01-26T02:06:49;102144.59;;;2.56;66.04
5651;BME280;40241;52.684;9.758;2023-01-26T02:09:16;102146.16;;;2.57;66.31
5651;BME280;40241;52.684;9.758;2023-01-26T02:12:02;102141.16;;;2.52;66.10
5651;BME280;40241;52.684;9.758;2023-01-26T02:14:31;102141.50;;;2.54;66.34
5651;BME280;40241;52.684;9.758;2023-01-26T02:16:57;102134.91;;;2.55;66.22
5651;BME280;40241;52.684;9.758;2023-01-26T02:23:07;102138.78;;;2.58;66.49
5651;BME280;40241;52.684;9.758;2023-01-26T02:28:13;102133.31;;;2.61;66.43
5651;BME280;40241;52.684;9.758;2023-01-26T02:30:38;102154.25;;;2.64;66.34
5651;BME280;40241;52.684;9.758;2023-01-26T02:33:04;102142.97;;;2.66;66.30
5651;BME280;40241;52.684;9.758;2023-01-26T02:35:29;102144.13;;;2.68;66.28
5651;BME280;40241;52.684;9.758;2023-01-26T02:37:54;102130.97;;;2.63;66.19
5651;BME280;40241;52.684;9.758;2023-01-26T02:40:29;102149.56;;;2.68;66.09
5651;BME280;40241;52.684;9.758;2023-01-26T02:42:56;102128.19;;;2.70;66.22
5651;BME280;40241;52.684;9.758;2023-01-26T02:45:22;102139.44;;;2.69;66.27
5651;BME280;40241;52.684;9.758;2023-01-26T02:47:48;102134.00;;;2.69;66.24
5651;BME280;40241;52.684;9.758;2023-01-26T02:50:14;102139.06;;;2.67;66.22
5651;BME280;40241;52.684;9.758;2023-01-26T02:52:40;102137.13;;;2.67;66.15
5651;BME280;40241;52.684;9.758;2023-01-26T02:55:06;102132.06;;;2.69;66.12
5651;BME280;40241;52.684;9.758;2023-01-26T02:57:48;102153.81;;;2.69;66.38
5651;BME280;40241;52.684;9.758;2023-01-26T03:00:16;102124.28;;;2.71;66.06
5651;BME280;40241;52.684;9.758;2023-01-26T03:02:42;102134.78;;;2.69;66.22
5651;BME280;40241;52.684;9.758;2023-01-26T03:05:08;102115.03;;;2.65;66.21
5651;BME280;40241;52.684;9.758;2023-01-26T03:07:34;102115.81;;;2.66;66.52
5651;BME280;40241;52.684;9.758;2023-01-26T03:09:59;102137.13;;;2.67;66.53
5651;BME280;40241;52.684;9.758;2023-01-26T03:12:25;102118.47;;;2.69;66.31
5651;BME280;40241;52.684;9.758;2023-01-26T03:14:51;102121.19;;;2.69;66.52
5651;BME280;40241;52.684;9.758;2023-01-26T03:17:36;102142.50;;;2.74;66.34
5651;BME280;40241;52.684;9.758;2023-01-26T03:20:02;102125.44;;;2.74;66.28
5651;BME280;40241;52.684;9.758;2023-01-26T03:22:46;102131.66;;;2.74;66.13
5651;BME280;40241;52.684;9.758;2023-01-26T03:25:30;102127.78;;;2.72;66.16
5651;BME280;40241;52.684;9.758;2023-01-26T03:28:14;102129.28;;;2.76;66.41
5651;BME280;40241;52.684;9.758;2023-01-26T03:30:40;102114.94;;;2.76;66.13
5651;BME280;40241;52.684;9.758;2023-01-26T03:33:05;102111.44;;;2.75;66.03
5651;BME280;40241;52.684;9.758;2023-01-26T03:35:31;102151.13;;;2.66;66.32
5651;BME280;40241;52.684;9.758;2023-01-26T03:37:56;102109.50;;;2.76;66.41
5651;BME280;40241;52.684;9.758;2023-01-26T03:40:22;102106.78;;;2.76;66.47
5651;BME280;40241;52.684;9.758;2023-01-26T03:43:09;102118.44;;;2.76;66.42
5651;BME280;40241;52.684;9.758;2023-01-26T03:45:53;102098.66;;;2.72;66.45
5651;BME280;40241;52.684;9.758;2023-01-26T03:48:37;102099.44;;;2.73;66.67
5651;BME280;40241;52.684;9.758;2023-01-26T03:51:20;102095.94;;;2.72;66.91
5651;BME280;40241;52.684;9.758;2023-01-26T03:54:04;102117.28;;;2.74;66.57
5651;BME280;40241;52.684;9.758;2023-01-26T03:56:48;102105.25;;;2.71;66.52
5651;BME280;40241;52.684;9.758;2023-01-26T03:59:14;102096.31;;;2.74;66.48
5651;BME280;40241;52.684;9.758;2023-01-26T04:01:44;102095.91;;;2.79;66.51
5651;BME280;40241;52.684;9.758;2023-01-26T04:04:28;102100.56;;;2.75;66.62
5651;BME280;40241;52.684;9.758;2023-01-26T04:07:12;102093.19;;;2.79;66.60
5651;BME280;40241;52.684;9.758;2023-01-26T04:09:56;102104.44;;;2.78;66.35
5651;BME280;40241;52.684;9.758;2023-01-26T04:12:21;102093.56;;;2.78;66.27
5651;BME280;40241;52.684;9.758;2023-01-26T04:14:47;102109.47;;;2.79;66.34
5651;BME280;40241;52.684;9.758;2023-01-26T04:17:31;102100.56;;;2.75;66.63
5651;BME280;40241;52.684;9.758;2023-01-26T04:20:15;102086.63;;;2.73;66.46
5651;BME280;40241;52.684;9.758;2023-01-26T04:22:59;102100.97;;;2.77;66.59
5651;BME280;40241;52.684;9.758;2023-01-26T04:25:24;102098.25;;;2.77;66.51
5651;BME280;40241;52.684;9.758;2023-01-26T04:27:49;102088.13;;;2.78;66.34
5651;BME280;40241;52.684;9.758;2023-01-26T04:30:15;102084.59;;;2.81;66.56
5651;BME280;40241;52.684;9.758;2023-01-26T04:32:41;102087.31;;;2.81;66.52
5651;BME280;40241;52.684;9.758;2023-01-26T04:35:07;102089.63;;;2.82;66.49
5651;BME280;40241;52.684;9.758;2023-01-26T04:37:33;102074.09;;;2.83;66.31
5651;BME280;40241;52.684;9.758;2023-01-26T04:39:59;102088.84;;;2.85;66.68
5651;BME280;40241;52.684;9.758;2023-01-26T04:42:25;102076.03;;;2.86;66.32
5651;BME280;40241;52.684;9.758;2023-01-26T04:44:51;102075.97;;;2.89;66.45
5651;BME280;40241;52.684;9.758;2023-01-26T04:47:17;102077.91;;;2.89;66.49
5651;BME280;40241;52.684;9.758;2023-01-26T04:49:43;102074.06;;;2.86;66.71
5651;BME280;40241;52.684;9.758;2023-01-26T04:52:08;102053.50;;;2.85;66.32
5651;BME280;40241;52.684;9.758;2023-01-26T04:54:34;102076.03;;;2.82;66.60
5651;BME280;40241;52.684;9.758;2023-01-26T04:56:59;102050.06;;;2.81;66.73
5651;BME280;40241;52.684;9.758;2023-01-26T04:59:25;102060.47;;;2.86;66.44
5651;BME280;40241;52.684;9.758;2023-01-26T05:01:50;102123.34;;;2.88;66.67
5651;BME280;40241;52.684;9.758;2023-01-26T05:04:15;102091.13;;;2.90;66.55
5651;BME280;40241;52.684;9.758;2023-01-26T05:06:41;102061.53;;;2.96;66.74
5651;BME280;40241;52.684;9.758;2023-01-26T05:09:07;102052.97;;;2.97;66.55
5651;BME280;40241;52.684;9.758;2023-01-26T05:11:33;102060.38;;;2.97;66.44
5651;BME280;40241;52.684;9.758;2023-01-26T05:13:58;102054.53;;;2.98;66.52
5651;BME280;40241;52.684;9.758;2023-01-26T05:16:24;102054.13;;;3.00;66.51
5651;BME280;40241;52.684;9.758;2023-01-26T05:18:49;102060.75;;;2.99;66.66
5651;BME280;40241;52.684;9.758;2023-01-26T05:21:15;102060.75;;;2.99;66.64
5651;BME280;40241;52.684;9.758;2023-01-26T05:23:40;102104.22;;;2.99;66.40
5651;BME280;40241;52.684;9.758;2023-01-26T05:26:06;102060.75;;;2.95;66.65
5651;BME280;40241;52.684;9.758;2023-01-26T05:28:32;102108.03;;;3.05;66.63
5651;BME280;40241;52.684;9.758;2023-01-26T05:30:58;102051.38;;;3.03;66.35
5651;BME280;40241;52.684;9.758;2023-01-26T05:33:24;102056.41;;;3.05;66.72
5651;BME280;40241;52.684;9.758;2023-01-26T05:35:50;102057.56;;;3.04;66.57
5651;BME280;40241;52.684;9.758;2023-01-26T05:38:16;102074.59;;;3.08;66.67
5651;BME280;40241;52.684;9.758;2023-01-26T05:40:41;102069.16;;;3.08;66.59
5651;BME280;40241;52.684;9.758;2023-01-26T05:43:07;102069.56;;;3.07;66.66
5651;BME280;40241;52.684;9.758;2023-01-26T05:45:33;102069.16;;;3.08;66.74
5651;BME280;40241;52.684;9.758;2023-01-26T05:47:58;102067.22;;;3.09;66.85
5651;BME280;40241;52.684;9.758;2023-01-26T05:50:24;102055.56;;;3.08;66.48
5651;BME280;40241;52.684;9.758;2023-01-26T05:52:49;102054.84;;;3.04;66.39
5651;BME280;40241;52.684;9.758;2023-01-26T05:55:15;102054.47;;;3.02;66.60
5651;BME280;40241;52.684;9.758;2023-01-26T05:57:40;102080.44;;;3.07;66.91
5651;BME280;40241;52.684;9.758;2023-01-26T06:00:07;102070.28;;;3.11;66.46
5651;BME280;40241;52.684;9.758;2023-01-26T06:02:33;102065.22;;;3.13;66.44
5651;BME280;40241;52.684;9.758;2023-01-26T06:04:58;102074.22;;;3.10;66.51
5651;BME280;40241;52.684;9.758;2023-01-26T06:07:23;102070.28;;;3.11;66.55
5651;BME280;40241;52.684;9.758;2023-01-26T06:09:50;102088.97;;;3.09;66.38
5651;BME280;40241;52.684;9.758;2023-01-26T06:12:18;102062.56;;;3.09;66.59
5651;BME280;40241;52.684;9.758;2023-01-26T06:14:44;102076.94;;;3.06;66.80
5651;BME280;40241;52.684;9.758;2023-01-26T06:17:10;102064.09;;;3.10;66.70
5651;BME280;40241;52.684;9.758;2023-01-26T06:19:36;102079.22;;;3.11;66.55
5651;BME280;40241;52.684;9.758;2023-01-26T06:22:08;102068.31;;;3.15;66.71
5651;BME280;40241;52.684;9.758;2023-01-26T06:24:33;102072.16;;;3.17;66.53
5651;BME280;40241;52.684;9.758;2023-01-26T06:26:59;102073.75;;;3.15;66.39
5651;BME280;40241;52.684;9.758;2023-01-26T06:29:25;102070.22;;;3.18;66.69
5651;BME280;40241;52.684;9.758;2023-01-26T06:31:50;102079.94;;;3.19;66.68
5651;BME280;40241;52.684;9.758;2023-01-26T06:34:15;102075.66;;;3.18;66.85
5651;BME280;40241;52.684;9.758;2023-01-26T06:36:41;102069.06;;;3.19;66.64
5651;BME280;40241;52.684;9.758;2023-01-26T06:39:08;102076.06;;;3.16;66.69
5651;BME280;40241;52.684;9.758;2023-01-26T06:41:35;102086.91;;;3.20;66.59
5651;BME280;40241;52.684;9.758;2023-01-26T06:44:00;102088.13;;;3.15;66.57
5651;BME280;40241;52.684;9.758;2023-01-26T06:46:26;102076.06;;;3.16;66.75
5651;BME280;40241;52.684;9.758;2023-01-26T06:48:51;102088.47;;;3.21;66.66
5651;BME280;40241;52.684;9.758;2023-01-26T06:53:43;102079.47;;;3.24;66.67
5651;BME280;40241;52.684;9.758;2023-01-26T06:56:11;102082.19;;;3.24;66.74
5651;BME280;40241;52.684;9.758;2023-01-26T06:58:37;102062.88;;;3.15;66.62
5651;BME280;40241;52.684;9.758;2023-01-26T07:01:02;102068.19;;;3.25;66.59
5651;BME280;40241;52.684;9.758;2023-01-26T07:03:27;102126.47;;;3.24;66.82
5651;BME280;40241;52.684;9.758;2023-01-26T07:05:53;102077.09;;;3.26;66.72
5651;BME280;40241;52.684;9.758;2023-01-26T07:08:18;102082.19;;;3.24;66.67
5651;BME280;40241;52.684;9.758;2023-01-26T07:10:44;102079.88;;;3.22;66.52
5651;BME280;40241;52.684;9.758;2023-01-26T07:13:09;102082.97;;;3.24;66.80
5651;BME280;40241;52.684;9.758;2023-01-26T07:15:34;102072.09;;;3.24;66.68
5651;BME280;40241;52.684;9.758;2023-01-26T07:18:00;102080.19;;;3.28;66.79
5651;BME280;40241;52.684;9.758;2023-01-26T07:20:25;102070.91;;;3.25;66.71
5651;BME280;40241;52.684;9.758;2023-01-26T07:22:51;102067.00;;;3.26;66.74
5651;BME280;40241;52.684;9.758;2023-01-26T07:25:17;102077.44;;;3.31;66.64
5651;BME280;40241;52.684;9.758;2023-01-26T07:27:43;102098.78;;;3.33;66.85
5651;BME280;40241;52.684;9.758;2023-01-26T07:30:10;102141.13;;;3.34;66.63
5651;BME280;40241;52.684;9.758;2023-01-26T07:32:36;102082.03;;;3.38;66.72
5651;BME280;40241;52.684;9.758;2023-01-26T07:35:02;102087.09;;;3.36;66.79
5651;BME280;40241;52.684;9.758;2023-01-26T07:37:29;102085.16;;;3.36;66.78
5651;BME280;40241;52.684;9.758;2023-01-26T07:39:55;102093.72;;;3.35;66.88
5651;BME280;40241;52.684;9.758;2023-01-26T07:42:20;102091.31;;;3.40;66.89
5651;BME280;40241;52.684;9.758;2023-01-26T07:44:46;102085.47;;;3.42;66.82
5651;BME280;40241;52.684;9.758;2023-01-26T07:47:11;102085.41;;;3.45;66.73
5651;BME280;40241;52.684;9.758;2023-01-26T07:49:38;102080.09;;;3.38;66.75
5651;BME280;40241;52.684;9.758;2023-01-26T07:52:04;102092.81;;;3.45;66.68
5651;BME280;40241;52.684;9.758;2023-01-26T07:54:29;102096.63;;;3.51;66.74
5651;BME280;40241;52.684;9.758;2023-01-26T07:56:55;102092.31;;;3.53;66.63
5651;BME280;40241;52.684;9.758;2023-01-26T07:59:21;102075.66;;;3.48;66.70
5651;BME280;40241;52.684;9.758;2023-01-26T08:01:50;102097.41;;;3.51;66.55
5651;BME280;40241;52.684;9.758;2023-01-26T08:04:16;102079.88;;;3.52;66.73
5651;BME280;40241;52.684;9.758;2023-01-26T08:06:41;102098.94;;;3.52;66.62
5651;BME280;40241;52.684;9.758;2023-01-26T08:09:07;102137.81;;;3.53;66.62
5651;BME280;40241;52.684;9.758;2023-01-26T08:11:33;102093.47;;;3.56;66.94
5651;BME280;40241;52.684;9.758;2023-01-26T08:13:58;102099.63;;;3.60;66.61
5651;BME280;40241;52.684;9.758;2023-01-26T08:16:23;102103.50;;;3.59;66.71
5651;BME280;40241;52.684;9.758;2023-01-26T08:18:49;102106.22;;;3.59;66.65
5651;BME280;40241;52.684;9.758;2023-01-26T08:21:17;102088.75;;;3.60;66.66
5651;BME280;40241;52.684;9.758;2023-01-26T08:23:47;102092.59;;;3.62;66.69
5651;BME280;40241;52.684;9.758;2023-01-26T08:26:12;102102.72;;;3.62;66.71
5651;BME280;40241;52.684;9.758;2023-01-26T08:28:38;102103.84;;;3.64;66.71
5651;BME280;40241;52.684;9.758;2023-01-26T08:33:30;102095.72;;;3.61;66.71
5651;BME280;40241;52.684;9.758;2023-01-26T08:36:02;102097.63;;;3.64;66.75
5651;BME280;40241;52.684;9.758;2023-01-26T08:38:29;102103.47;;;3.62;66.93
5651;BME280;40241;52.684;9.758;2023-01-26T08:40:54;102110.09;;;3.61;66.77
5651;BME280;40241;52.684;9.758;2023-01-26T08:43:20;102117.47;;;3.61;66.82
5651;BME280;40241;52.684;9.758;2023-01-26T08:45:46;102096.44;;;3.65;67.16
5651;BME280;40241;52.684;9.758;2023-01-26T08:48:11;102103.00;;;3.67;67.13
5651;BME280;40241;52.684;9.758;2023-01-26T08:50:37;102098.69;;;3.70;66.95
5651;BME280;40241;52.684;9.758;2023-01-26T08:53:02;102096.75;;;3.70;66.83
5651;BME280;40241;52.684;9.758;2023-01-26T08:55:27;102101.78;;;3.72;66.87
5651;BME280;40241;52.684;9.758;2023-01-26T08:57:54;102099.06;;;3.72;66.85
5651;BME280;40241;52.684;9.758;2023-01-26T09:00:21;102114.59;;;3.75;66.80
5651;BME280;40241;52.684;9.758;2023-01-26T09:02:46;102088.16;;;3.72;66.80
5651;BME280;40241;52.684;9.758;2023-01-26T09:05:13;102111.78;;;3.82;66.93
5651;BME280;40241;52.684;9.758;2023-01-26T09:07:38;102135.44;;;3.85;66.64
5651;BME280;40241;52.684;9.758;2023-01-26T09:10:04;102091.22;;;3.77;66.90
5651;BME280;40241;52.684;9.758;2023-01-26T09:12:30;102106.94;;;3.93;66.82
5651;BME280;40241;52.684;9.758;2023-01-26T09:14:55;102104.97;;;3.94;66.73
5651;BME280;40241;52.684;9.758;2023-01-26T09:17:21;102119.78;;;3.93;66.91
5651;BME280;40241;52.684;9.758;2023-01-26T09:19:46;102105.03;;;3.90;66.67
5651;BME280;40241;52.684;9.758;2023-01-26T09:22:12;102117.84;;;3.93;66.84
5651;BME280;40241;52.684;9.758;2023-01-26T09:24:37;102116.66;;;3.94;66.76
5651;BME280;40241;52.684;9.758;2023-01-26T09:27:02;102151.22;;;3.97;66.94
5651;BME280;40241;52.684;9.758;2023-01-26T09:29:28;102118.50;;;4.01;66.82
5651;BME280;40241;52.684;9.758;2023-01-26T09:31:53;102130.53;;;4.03;66.87
5651;BME280;40241;52.684;9.758;2023-01-26T09:34:18;102108.31;;;4.05;66.94
5651;BME280;40241;52.684;9.758;2023-01-26T09:36:44;102112.53;;;4.09;67.21
5651;BME280;40241;52.684;9.758;2023-01-26T09:39:09;102115.59;;;4.11;67.08
5651;BME280;40241;52.684;9.758;2023-01-26T09:41:55;102112.06;;;4.14;66.79
5651;BME280;40241;52.684;9.758;2023-01-26T09:44:24;102107.78;;;4.13;66.79
5651;BME280;40241;52.684;9.758;2023-01-26T09:54:53;102119.00;;;4.19;67.04
5651;BME280;40241;52.684;9.758;2023-01-26T09:58:05;102105.44;;;4.15;66.97
5651;BME280;40241;52.684;9.758;2023-01-26T10:00:52;102115.50;;;4.18;66.93
5651;BME280;40241;52.684;9.758;2023-01-26T10:03:27;102111.63;;;4.19;66.62
5651;BME280;40241;52.684;9.758;2023-01-26T10:08:24;102107.69;;;4.20;66.58
5651;BME280;40241;52.684;9.758;2023-01-26T10:11:00;102103.31;;;4.26;66.75
5651;BME280;40241;52.684;9.758;2023-01-26T10:13:28;102092.84;;;4.25;67.03
5651;BME280;40241;52.684;9.758;2023-01-26T10:16:00;102102.56;;;4.26;66.63
5651;BME280;40241;52.684;9.758;2023-01-26T10:18:38;102100.94;;;4.28;66.75
5651;BME280;40241;52.684;9.758;2023-01-26T10:21:06;102100.94;;;4.28;67.04
5651;BME280;40241;52.684;9.758;2023-01-26T10:23:34;102077.22;;;4.29;67.04
5651;BME280;40241;52.684;9.758;2023-01-26T10:26:13;102071.72;;;4.32;66.79
5651;BME280;40241;52.684;9.758;2023-01-26T10:28:41;102074.44;;;4.32;66.78
5651;BME280;40241;52.684;9.758;2023-01-26T10:31:36;102095.03;;;4.33;66.87
5651;BME280;40241;52.684;9.758;2023-01-26T10:34:11;102075.16;;;4.36;67.08
5651;BME280;40241;52.684;9.758;2023-01-26T10:36:39;102083.69;;;4.38;66.75
5651;BME280;40241;52.684;9.758;2023-01-26T10:39:09;102060.69;;;4.39;67.01
5651;BME280;40241;52.684;9.758;2023-01-26T10:41:35;102058.31;;;4.41;67.04
5651;BME280;40241;52.684;9.758;2023-01-26T10:44:33;102050.09;;;4.45;66.68
5651;BME280;40241;52.684;9.758;2023-01-26T10:47:16;102059.44;;;4.44;66.72
5651;BME280;40241;52.684;9.758;2023-01-26T10:49:42;102083.59;;;4.42;67.15
5651;BME280;40241;52.684;9.758;2023-01-26T10:52:22;102043.03;;;4.47;66.72
5651;BME280;40241;52.684;9.758;2023-01-26T10:55:09;102039.91;;;4.49;66.99
5651;BME280;40241;52.684;9.758;2023-01-26T10:57:38;102036.75;;;4.50;66.89
5651;BME280;40241;52.684;9.758;2023-01-26T11:02:52;102042.84;;;4.58;66.66
5651;BME280;40241;52.684;9.758;2023-01-26T11:05:23;102047.88;;;4.60;67.08
5651;BME280;40241;52.684;9.758;2023-01-26T11:07:55;102028.81;;;4.60;66.97
5651;BME280;40241;52.684;9.758;2023-01-26T11:10:33;102045.84;;;4.64;67.00
5651;BME280;40241;52.684;9.758;2023-01-26T11:13:16;102054.81;;;4.64;66.83
5651;BME280;40241;52.684;9.758;2023-01-26T11:15:48;102047.06;;;4.63;66.97
5651;BME280;40241;52.684;9.758;2023-01-26T11:18:29;102042.06;;;4.57;66.94
5651;BME280;40241;52.684;9.758;2023-01-26T11:35:17;102028.81;;;4.60;66.93
5651;BME280;40241;52.684;9.758;2023-01-26T11:37:51;102026.91;;;4.56;67.04
5651;BME280;40241;52.684;9.758;2023-01-26T12:02:30;102017.00;;;4.66;67.05
5651;BME280;40241;52.684;9.758;2023-01-26T12:04:59;102012.75;;;4.65;67.13
5651;BME280;40241;52.684;9.758;2023-01-26T12:07:35;102008.75;;;4.70;67.07
5651;BME280;40241;52.684;9.758;2023-01-26T12:10:16;101995.50;;;4.72;67.01
5651;BME280;40241;52.684;9.758;2023-01-26T12:12:50;102012.19;;;4.74;67.04
5651;BME280;40241;52.684;9.758;2023-01-26T12:15:22;101985.75;;;4.71;66.68
5651;BME280;40241;52.684;9.758;2023-01-26T12:18:04;101986.03;;;4.76;66.90
5651;BME280;40241;52.684;9.758;2023-01-26T12:20:45;101989.13;;;4.78;66.76
5651;BME280;40241;52.684;9.758;2023-01-26T12:25:52;101980.94;;;4.78;67.16
5651;BME280;40241;52.684;9.758;2023-01-26T12:28:33;101981.69;;;4.79;66.96
5651;BME280;40241;52.684;9.758;2023-01-26T12:31:07;101975.84;;;4.80;67.05
5651;BME280;40241;52.684;9.758;2023-01-26T12:33:37;101970.78;;;4.79;66.81
5651;BME280;40241;52.684;9.758;2023-01-26T12:46:27;101957.16;;;4.79;67.07
5651;BME280;40241;52.684;9.758;2023-01-26T12:49:21;101957.09;;;4.82;67.02
5651;BME280;40241;52.684;9.758;2023-01-26T12:51:56;101958.63;;;4.83;66.80
5651;BME280;40241;52.684;9.758;2023-01-26T12:54:39;101958.97;;;4.85;67.03
5651;BME280;40241;52.684;9.758;2023-01-26T12:57:12;101958.22;;;4.85;66.93
5651;BME280;40241;52.684;9.758;2023-01-26T12:59:40;101965.19;;;4.86;67.04
5651;BME280;40241;52.684;9.758;2023-01-26T13:04:46;101950.41;;;4.87;66.98
5651;BME280;40241;52.684;9.758;2023-01-26T13:07:32;101946.03;;;4.89;67.08
5651;BME280;40241;52.684;9.758;2023-01-26T13:15:28;101948.06;;;4.85;67.06
5651;BME280;40241;52.684;9.758;2023-01-26T13:17:54;101953.13;;;4.87;67.07
5651;BME280;40241;52.684;9.758;2023-01-26T13:20:48;101958.22;;;4.85;67.17
5651;BME280;40241;52.684;9.758;2023-01-26T13:26:12;101940.31;;;4.84;67.23
5651;BME280;40241;52.684;9.758;2023-01-26T13:28:39;101947.31;;;4.85;67.17
5651;BME280;40241;52.684;9.758;2023-01-26T13:31:05;101958.22;;;4.85;67.26
5651;BME280;40241;52.684;9.758;2023-01-26T13:33:31;101960.44;;;4.90;66.99
5651;BME280;40241;52.684;9.758;2023-01-26T13:35:57;101959.66;;;4.89;67.08
5651;BME280;40241;52.684;9.758;2023-01-26T13:38:36;101955.00;;;4.90;66.99
5651;BME280;40241;52.684;9.758;2023-01-26T13:41:17;101953.88;;;4.87;67.02
5651;BME280;40241;52.684;9.758;2023-01-26T13:44:06;101962.41;;;4.89;66.75
5651;BME280;40241;52.684;9.758;2023-01-26T13:47:00;101963.94;;;4.90;67.01
5651;BME280;40241;52.684;9.758;2023-01-26T13:49:40;101975.34;;;4.85;66.81
5651;BME280;40241;52.684;9.758;2023-01-26T13:52:22;101963.59;;;4.88;66.82
5651;BME280;40241;52.684;9.758;2023-01-26T13:54:51;101972.22;;;4.87;67.23
5651;BME280;40241;52.684;9.758;2023-01-26T13:57:27;101971.00;;;4.88;67.02
5651;BME280;40241;52.684;9.758;2023-01-26T13:59:59;101966.31;;;4.88;66.99
5651;BME280;40241;52.684;9.758;2023-01-26T14:02:32;101966.66;;;4.90;67.01
5651;BME280;40241;52.684;9.758;2023-01-26T14:05:00;101979.53;;;4.90;67.01
5651;BME280;40241;52.684;9.758;2023-01-26T14:07:34;101967.84;;;4.89;67.17
5651;BME280;40241;52.684;9.758;2023-01-26T14:10:02;101963.94;;;4.90;67.14
5651;BME280;40241;52.684;9.758;2023-01-26T14:12:34;101986.09;;;4.92;66.95
5651;BME280;40241;52.684;9.758;2023-01-26T14:15:02;101993.09;;;4.93;67.01
5651;BME280;40241;52.684;9.758;2023-01-26T14:17:29;101970.50;;;4.93;67.10
5651;BME280;40241;52.684;9.758;2023-01-26T14:19:56;101986.09;;;4.92;66.78
5651;BME280;40241;52.684;9.758;2023-01-26T14:22:22;101971.28;;;4.93;66.99
5651;BME280;40241;52.684;9.758;2023-01-26T14:24:49;101971.28;;;4.93;66.77
5651;BME280;40241;52.684;9.758;2023-01-26T14:27:34;101965.41;;;4.95;67.17
5651;BME280;40241;52.684;9.758;2023-01-26T14:30:05;101973.69;;;4.91;67.03
5651;BME280;40241;52.684;9.758;2023-01-26T14:32:46;101975.53;;;4.94;67.03
5651;BME280;40241;52.684;9.758;2023-01-26T14:35:20;101974.75;;;4.94;67.12
5651;BME280;40241;52.684;9.758;2023-01-26T14:37:49;101993.94;;;4.90;67.03
5651;BME280;40241;52.684;9.758;2023-01-26T14:42:44;101968.63;;;4.90;67.28
5651;BME280;40241;52.684;9.758;2023-01-26T14:45:13;101968.22;;;4.91;66.93
5651;BME280;40241;52.684;9.758;2023-01-26T14:47:39;101971.34;;;4.90;67.31
5651;BME280;40241;52.684;9.758;2023-01-26T14:50:23;101976.75;;;4.93;67.00